createdAt,value
2018-09-26T00:01:01.175Z,8.20
2018-09-26T00:03:35.226Z,8.20
2018-09-26T00:06:04.016Z,8.10
2018-09-26T00:08:31.607Z,8.10
2018-09-26T00:10:59.125Z,8.00
2018-09-26T00:13:26.663Z,8.00
2018-09-26T00:15:54.172Z,8.00
2018-09-26T00:18:21.693Z,8.00
2018-09-26T00:20:49.217Z,8.00
2018-09-26T00:23:16.775Z,7.90
2018-09-26T00:25:44.434Z,7.90
2018-09-26T00:28:11.989Z,7.90
2018-09-26T00:30:39.766Z,7.90
2018-09-26T00:33:07.333Z,7.90
2018-09-26T00:35:34.886Z,7.90
2018-09-26T00:38:02.445Z,7.80
2018-09-26T00:40:30.050Z,7.80
2018-09-26T00:42:57.684Z,7.80
2018-09-26T00:45:25.246Z,7.80
2018-09-26T00:47:52.790Z,7.90
2018-09-26T00:50:20.329Z,7.90
2018-09-26T00:52:47.888Z,7.90
2018-09-26T00:55:15.418Z,7.90
2018-09-26T00:57:42.962Z,7.90
2018-09-26T01:00:10.533Z,7.90
2018-09-26T01:02:38.097Z,7.80
2018-09-26T01:05:05.729Z,7.80
2018-09-26T01:07:33.883Z,7.80
2018-09-26T01:10:01.725Z,7.80
2018-09-26T01:12:29.289Z,7.80
2018-09-26T01:14:56.826Z,7.80
2018-09-26T01:17:24.685Z,7.70
2018-09-26T01:19:52.225Z,7.70
2018-09-26T01:22:19.946Z,7.70
2018-09-26T01:24:47.477Z,7.70
2018-09-26T01:27:15.035Z,7.70
2018-09-26T01:29:42.596Z,7.60
2018-09-26T01:32:10.126Z,7.50
2018-09-26T01:34:37.861Z,7.50
2018-09-26T01:37:05.448Z,7.40
2018-09-26T01:39:33.766Z,7.50
2018-09-26T01:42:01.314Z,7.50
2018-09-26T01:44:28.904Z,7.50
2018-09-26T01:46:56.770Z,7.40
2018-09-26T01:49:24.388Z,7.40
2018-09-26T01:51:52.017Z,7.30
2018-09-26T01:54:19.561Z,7.20
2018-09-26T01:56:47.105Z,7.20
2018-09-26T01:59:14.641Z,7.10
2018-09-26T02:01:42.181Z,7.10
2018-09-26T02:04:10.013Z,7.10
2018-09-26T02:06:37.549Z,7.10
2018-09-26T02:09:07.589Z,7.20
2018-09-26T02:11:35.182Z,7.10
2018-09-26T02:14:02.733Z,7.10
2018-09-26T02:16:30.250Z,7.10
2018-09-26T02:18:58.071Z,7.00
2018-09-26T02:21:25.601Z,6.90
2018-09-26T02:23:53.230Z,6.80
2018-09-26T02:26:20.762Z,6.80
2018-09-26T02:28:48.310Z,6.80
2018-09-26T02:31:15.858Z,6.70
2018-09-26T02:33:43.401Z,6.70
2018-09-26T02:36:10.952Z,6.70
2018-09-26T02:38:38.526Z,6.60
2018-09-26T02:41:06.127Z,6.70
2018-09-26T02:43:33.661Z,6.60
2018-09-26T02:46:01.210Z,6.70
2018-09-26T02:48:34.919Z,6.60
2018-09-26T02:51:02.721Z,6.70
2018-09-26T02:53:30.304Z,6.70
2018-09-26T02:55:57.956Z,6.70
2018-09-26T02:58:25.492Z,6.70
2018-09-26T03:00:53.199Z,6.70
2018-09-26T03:03:20.731Z,6.80
2018-09-26T03:05:48.280Z,6.70
2018-09-26T03:08:15.813Z,6.70
2018-09-26T03:10:43.399Z,6.70
2018-09-26T03:13:10.923Z,6.60
2018-09-26T03:15:38.601Z,6.70
2018-09-26T03:18:06.268Z,6.70
2018-09-26T03:20:33.900Z,6.70
2018-09-26T03:23:01.425Z,6.70
2018-09-26T03:25:28.979Z,6.80
2018-09-26T03:27:56.905Z,6.80
2018-09-26T03:30:24.879Z,6.80
2018-09-26T03:32:52.831Z,6.80
2018-09-26T03:35:20.442Z,6.70
2018-09-26T03:37:48.013Z,6.70
2018-09-26T03:40:15.797Z,6.60
2018-09-26T03:42:43.450Z,6.60
2018-09-26T03:45:11.004Z,6.60
2018-09-26T03:47:39.173Z,6.50
2018-09-26T03:50:06.853Z,6.50
2018-09-26T03:52:34.658Z,6.50
2018-09-26T03:55:02.236Z,6.50
2018-09-26T03:57:30.485Z,6.60
2018-09-26T03:59:58.024Z,6.50
2018-09-26T04:02:25.786Z,6.50
2018-09-26T04:04:53.365Z,6.50
2018-09-26T04:07:21.285Z,6.40
2018-09-26T04:09:48.832Z,6.40
2018-09-26T04:12:16.361Z,6.30
2018-09-26T04:14:44.213Z,6.50
2018-09-26T04:17:11.762Z,6.40
2018-09-26T04:19:39.501Z,6.30
2018-09-26T04:22:07.080Z,6.40
2018-09-26T04:24:34.638Z,6.50
2018-09-26T04:27:02.529Z,6.50
2018-09-26T04:29:30.402Z,6.40
2018-09-26T04:31:57.981Z,6.40
2018-09-26T04:34:25.510Z,6.30
2018-09-26T04:36:53.061Z,6.30
2018-09-26T04:39:20.619Z,6.30
2018-09-26T04:41:48.161Z,6.20
2018-09-26T04:44:15.734Z,6.10
2018-09-26T04:46:45.199Z,6.10
2018-09-26T04:49:12.726Z,6.20
2018-09-26T04:51:40.746Z,6.20
2018-09-26T04:54:08.264Z,6.30
2018-09-26T04:56:35.816Z,6.30
2018-09-26T04:59:03.533Z,6.20
2018-09-26T05:01:31.073Z,6.20
2018-09-26T05:04:03.340Z,6.20
2018-09-26T05:06:30.931Z,6.30
2018-09-26T05:08:58.588Z,6.30
2018-09-26T05:11:26.198Z,6.30
2018-09-26T05:13:53.974Z,6.30
2018-09-26T05:16:21.529Z,6.30
2018-09-26T05:18:49.208Z,6.30
2018-09-26T05:21:16.772Z,6.30
2018-09-26T05:23:45.115Z,6.30
2018-09-26T05:26:12.845Z,6.40
2018-09-26T05:28:40.584Z,6.30
2018-09-26T05:31:08.189Z,6.30
2018-09-26T05:33:35.721Z,6.30
2018-09-26T05:36:03.301Z,6.30
2018-09-26T05:38:30.973Z,6.30
2018-09-26T05:40:58.505Z,6.20
2018-09-26T05:43:26.041Z,6.20
2018-09-26T05:45:54.037Z,6.20
2018-09-26T05:48:22.006Z,6.20
2018-09-26T05:50:49.961Z,6.20
2018-09-26T05:53:17.616Z,6.40
2018-09-26T05:55:45.197Z,6.40
2018-09-26T05:58:12.749Z,6.40
2018-09-26T06:00:40.876Z,6.40
2018-09-26T06:03:08.553Z,6.40
2018-09-26T06:05:36.682Z,6.50
2018-09-26T06:08:04.787Z,6.50
2018-09-26T06:10:32.348Z,6.60
2018-09-26T06:13:00.048Z,6.60
2018-09-26T06:15:27.539Z,6.70
2018-09-26T06:17:55.097Z,6.70
2018-09-26T06:20:22.641Z,6.70
2018-09-26T06:22:50.324Z,6.90
2018-09-26T06:25:17.841Z,6.90
2018-09-26T06:27:45.373Z,7.00
2018-09-26T06:30:12.973Z,6.90
2018-09-26T06:32:40.545Z,7.00
2018-09-26T06:35:08.180Z,7.20
2018-09-26T06:37:36.217Z,7.30
2018-09-26T06:40:03.844Z,7.40
2018-09-26T06:42:31.756Z,7.50
2018-09-26T06:44:59.331Z,7.60
2018-09-26T06:47:27.150Z,7.70
2018-09-26T06:49:54.701Z,7.70
2018-09-26T06:52:22.269Z,7.90
2018-09-26T06:54:49.882Z,8.00
2018-09-26T06:57:17.688Z,8.20
2018-09-26T06:59:45.733Z,8.40
2018-09-26T07:02:13.272Z,8.40
2018-09-26T07:04:40.805Z,8.50
2018-09-26T07:07:08.378Z,8.60
2018-09-26T07:09:35.905Z,8.60
2018-09-26T07:12:04.523Z,8.70
2018-09-26T07:14:32.048Z,8.70
2018-09-26T07:17:05.649Z,8.70
2018-09-26T07:19:33.209Z,8.80
2018-09-26T07:22:00.720Z,8.80
2018-09-26T07:24:28.738Z,8.90
2018-09-26T07:26:56.277Z,9.00
2018-09-26T07:29:23.828Z,8.90
2018-09-26T07:31:51.384Z,9.00
2018-09-26T07:34:23.500Z,9.10
2018-09-26T07:36:51.333Z,9.10
2018-09-26T07:39:18.884Z,9.20
2018-09-26T07:41:46.428Z,9.30
2018-09-26T07:44:14.014Z,9.30
2018-09-26T07:46:41.553Z,9.50
2018-09-26T07:49:09.140Z,9.60
2018-09-26T07:51:36.721Z,9.70
2018-09-26T07:54:04.665Z,9.90
2018-09-26T07:56:32.189Z,10.00
2018-09-26T07:58:59.771Z,10.20
2018-09-26T08:01:27.305Z,10.30
2018-09-26T08:03:54.929Z,10.40
2018-09-26T08:06:22.536Z,10.50
2018-09-26T08:08:50.078Z,10.50
2018-09-26T08:11:19.505Z,10.60
2018-09-26T08:13:47.040Z,10.80
2018-09-26T08:16:14.562Z,10.80
2018-09-26T08:18:42.199Z,11.20
2018-09-26T08:21:09.719Z,11.20
2018-09-26T08:23:37.285Z,11.30
2018-09-26T08:26:04.829Z,11.40
2018-09-26T08:28:32.395Z,11.40
2018-09-26T08:30:59.928Z,11.60
2018-09-26T08:33:27.472Z,11.80
2018-09-26T08:38:32.109Z,11.90
2018-09-26T08:40:59.641Z,12.00
2018-09-26T08:43:27.182Z,12.10
2018-09-26T08:45:54.730Z,12.30
2018-09-26T08:48:22.262Z,12.60
2018-09-26T08:50:50.301Z,12.50
2018-09-26T08:53:17.866Z,12.60
2018-09-26T08:55:45.469Z,12.70
2018-09-26T08:58:13.025Z,12.80
2018-09-26T09:00:40.617Z,12.80
2018-09-26T09:03:08.165Z,12.60
2018-09-26T09:05:36.077Z,12.60
2018-09-26T09:08:03.652Z,12.30
2018-09-26T09:10:32.041Z,12.50
2018-09-26T09:12:59.813Z,12.50
2018-09-26T09:15:27.875Z,12.60
2018-09-26T09:17:55.958Z,12.50
2018-09-26T09:20:23.540Z,12.70
2018-09-26T09:22:51.038Z,12.80
2018-09-26T09:25:18.600Z,12.90
2018-09-26T09:27:46.897Z,13.20
2018-09-26T09:30:14.450Z,13.30
2018-09-26T09:32:41.990Z,13.30
2018-09-26T09:35:09.541Z,13.40
2018-09-26T09:37:37.091Z,13.50
2018-09-26T09:40:07.454Z,13.70
2018-09-26T09:42:35.009Z,13.90
2018-09-26T09:45:02.611Z,13.90
2018-09-26T09:47:30.142Z,13.90
2018-09-26T09:49:57.688Z,13.80
2018-09-26T09:52:25.478Z,14.00
2018-09-26T09:54:53.308Z,14.10
2018-09-26T09:57:20.869Z,14.30
2018-09-26T09:59:48.397Z,14.30
2018-09-26T10:02:16.035Z,14.30
2018-09-26T10:04:43.541Z,14.20
2018-09-26T10:07:11.085Z,14.40
2018-09-26T10:09:38.749Z,14.60
2018-09-26T10:12:06.430Z,14.70
2018-09-26T10:14:34.026Z,14.70
2018-09-26T10:17:01.544Z,14.90
2018-09-26T10:19:29.089Z,15.10
2018-09-26T10:21:56.617Z,15.10
2018-09-26T10:24:24.125Z,15.20
2018-09-26T10:26:51.634Z,15.40
2018-09-26T10:29:19.186Z,15.50
2018-09-26T10:31:46.744Z,15.40
2018-09-26T10:34:14.314Z,15.50
2018-09-26T10:36:41.944Z,15.50
2018-09-26T10:39:10.513Z,15.30
2018-09-26T10:41:38.049Z,15.20
2018-09-26T10:44:05.943Z,15.30
2018-09-26T10:46:33.494Z,15.40
2018-09-26T10:49:01.195Z,15.50
2018-09-26T10:51:28.775Z,15.60
2018-09-26T10:53:56.357Z,15.80
2018-09-26T10:56:23.978Z,16.00
2018-09-26T10:58:51.473Z,16.40
2018-09-26T11:01:19.046Z,16.60
2018-09-26T11:03:46.576Z,16.60
2018-09-26T11:06:14.160Z,16.50
2018-09-26T11:08:41.721Z,16.50
2018-09-26T11:11:09.272Z,16.80
2018-09-26T11:13:36.804Z,16.90
2018-09-26T11:16:04.428Z,17.10
2018-09-26T11:18:32.337Z,17.40
2018-09-26T11:20:59.915Z,17.60
2018-09-26T11:23:27.441Z,17.60
2018-09-26T11:25:55.003Z,17.90
2018-09-26T11:28:22.621Z,18.00
2018-09-26T11:30:50.661Z,18.00
2018-09-26T11:33:18.226Z,17.90
2018-09-26T11:35:46.005Z,17.80
2018-09-26T11:38:13.581Z,17.80
2018-09-26T11:40:41.150Z,18.10
2018-09-26T11:43:08.693Z,18.10
2018-09-26T11:45:36.288Z,18.10
2018-09-26T11:48:04.712Z,18.10
2018-09-26T11:50:32.313Z,18.20
2018-09-26T11:53:02.361Z,18.20
2018-09-26T11:55:29.942Z,18.40
2018-09-26T11:57:58.208Z,18.60
2018-09-26T12:00:25.730Z,18.80
2018-09-26T12:02:53.414Z,18.80
2018-09-26T12:05:21.057Z,18.90
2018-09-26T12:07:48.657Z,19.00
2018-09-26T12:10:16.248Z,19.00
2018-09-26T12:12:43.730Z,19.30
2018-09-26T12:15:11.257Z,19.40
2018-09-26T12:17:38.805Z,19.60
2018-09-26T12:20:06.392Z,19.90
2018-09-26T12:22:34.064Z,19.90
2018-09-26T12:25:01.930Z,20.10
2018-09-26T12:27:29.482Z,20.20
2018-09-26T12:29:57.019Z,20.30
2018-09-26T12:32:24.648Z,20.30
2018-09-26T12:34:52.345Z,20.10
2018-09-26T12:37:19.771Z,20.30
2018-09-26T12:39:47.288Z,20.30
2018-09-26T12:42:14.933Z,20.20
2018-09-26T12:44:42.438Z,20.30
2018-09-26T12:47:10.084Z,20.50
2018-09-26T12:49:37.988Z,20.70
2018-09-26T12:52:05.765Z,20.70
2018-09-26T12:54:33.320Z,20.80
2018-09-26T12:57:01.966Z,21.10
2018-09-26T12:59:29.510Z,20.90
2018-09-26T13:01:57.097Z,20.50
2018-09-26T13:04:24.737Z,20.40
2018-09-26T13:06:52.257Z,20.60
2018-09-26T13:09:19.822Z,21.00
2018-09-26T13:11:47.432Z,21.40
2018-09-26T13:14:15.044Z,21.30
2018-09-26T13:16:42.552Z,21.20
2018-09-26T13:19:10.542Z,21.40
2018-09-26T13:21:38.088Z,21.50
2018-09-26T13:24:05.637Z,21.80
2018-09-26T13:26:33.213Z,22.00
2018-09-26T13:29:00.961Z,22.00
2018-09-26T13:31:28.509Z,21.90
2018-09-26T13:33:56.116Z,22.00
2018-09-26T13:36:23.677Z,22.20
2018-09-26T13:38:51.265Z,22.30
2018-09-26T13:41:18.784Z,22.60
2018-09-26T13:43:46.723Z,22.80
2018-09-26T13:46:14.290Z,22.60
2018-09-26T13:48:41.821Z,22.70
2018-09-26T13:51:09.357Z,22.90
2018-09-26T13:53:37.000Z,22.90
2018-09-26T13:56:07.933Z,23.10
2018-09-26T13:58:35.485Z,23.00
2018-09-26T14:01:04.510Z,23.60
2018-09-26T14:03:32.045Z,23.90
2018-09-26T14:05:59.618Z,24.30
2018-09-26T14:08:27.224Z,25.80
2018-09-26T14:10:55.789Z,27.80
2018-09-26T14:13:23.388Z,28.80
2018-09-26T14:15:50.909Z,30.20
2018-09-26T14:18:18.516Z,32.20
2018-09-26T14:21:03.168Z,32.70
2018-09-26T14:23:30.976Z,33.10
2018-09-26T14:25:58.614Z,34.10
2018-09-26T14:28:26.348Z,33.50
2018-09-26T14:30:54.280Z,33.30
2018-09-26T14:33:21.880Z,33.10
2018-09-26T14:35:49.524Z,32.40
2018-09-26T14:38:17.223Z,32.50
2018-09-26T14:40:44.828Z,33.00
2018-09-26T14:43:12.514Z,33.10
2018-09-26T14:45:40.303Z,33.50
2018-09-26T14:48:07.994Z,34.20
2018-09-26T14:50:35.641Z,34.50
2018-09-26T14:53:03.334Z,33.70
2018-09-26T14:55:31.005Z,34.20
2018-09-26T14:57:58.710Z,35.30
2018-09-26T15:00:26.402Z,36.40
2018-09-26T15:02:54.029Z,34.30
2018-09-26T15:05:21.697Z,32.90
2018-09-26T15:07:49.362Z,32.80
2018-09-26T15:10:17.096Z,32.40
2018-09-26T15:12:45.037Z,32.10
2018-09-26T15:15:14.359Z,32.00
2018-09-26T15:17:42.721Z,32.70
2018-09-26T15:20:10.497Z,33.50
2018-09-26T15:22:38.097Z,32.70
2018-09-26T15:25:05.826Z,32.00
2018-09-26T15:27:33.470Z,31.70
2018-09-26T15:30:01.150Z,32.30
2018-09-26T15:32:28.777Z,32.40
2018-09-26T15:34:58.368Z,32.00
2018-09-26T15:37:26.073Z,32.30
2018-09-26T15:39:53.808Z,33.00
2018-09-26T15:42:21.624Z,33.20
2018-09-26T15:44:49.237Z,32.60
2018-09-26T15:47:17.028Z,33.10
2018-09-26T15:49:44.693Z,34.00
2018-09-26T15:52:12.390Z,34.80
2018-09-26T15:54:40.449Z,34.10
2018-09-26T15:57:08.337Z,33.40
2018-09-26T15:59:36.032Z,33.20
2018-09-26T16:02:08.060Z,33.40
2018-09-26T16:04:35.905Z,33.30
2018-09-26T16:07:03.545Z,32.50
2018-09-26T16:09:31.113Z,32.80
2018-09-26T16:11:58.733Z,31.90
2018-09-26T16:14:26.684Z,31.50
2018-09-26T16:16:55.257Z,31.70
2018-09-26T16:19:23.052Z,31.50
2018-09-26T16:21:50.589Z,31.10
2018-09-26T16:24:18.172Z,31.60
2018-09-26T16:26:45.748Z,31.80
2018-09-26T16:29:13.317Z,32.40
2018-09-26T16:31:41.009Z,31.50
2018-09-26T16:34:08.709Z,31.10
2018-09-26T16:36:36.201Z,30.90
2018-09-26T16:39:07.321Z,30.50
2018-09-26T16:41:34.982Z,29.50
2018-09-26T16:44:02.517Z,29.40
2018-09-26T16:46:30.361Z,29.10
2018-09-26T16:48:57.926Z,29.30
2018-09-26T16:51:25.509Z,29.10
2018-09-26T16:53:53.080Z,26.90
2018-09-26T16:56:20.750Z,24.70
2018-09-26T16:58:48.257Z,23.30
2018-09-26T17:01:15.822Z,22.00
2018-09-26T17:03:43.657Z,20.90
2018-09-26T17:06:11.277Z,19.80
2018-09-26T17:08:38.826Z,19.20
2018-09-26T17:11:06.485Z,18.90
2018-09-26T17:13:34.057Z,18.70
2018-09-26T17:16:01.625Z,18.30
2018-09-26T17:18:29.207Z,17.90
2018-09-26T17:20:56.757Z,17.60
2018-09-26T17:23:24.548Z,17.40
2018-09-26T17:25:52.093Z,17.30
2018-09-26T17:28:19.721Z,17.20
2018-09-26T17:30:47.229Z,17.10
2018-09-26T17:33:14.781Z,17.00
2018-09-26T17:35:42.325Z,16.90
2018-09-26T17:38:10.090Z,16.80
2018-09-26T17:40:37.617Z,16.60
2018-09-26T17:43:05.227Z,16.60
2018-09-26T17:45:33.685Z,16.60
2018-09-26T17:48:01.245Z,16.50
2018-09-26T17:50:28.785Z,16.30
2018-09-26T17:52:56.350Z,16.20
2018-09-26T17:55:23.896Z,16.10
2018-09-26T17:57:51.506Z,16.00
2018-09-26T18:00:19.146Z,15.90
2018-09-26T18:02:46.617Z,15.80
2018-09-26T18:05:14.213Z,15.70
2018-09-26T18:07:41.789Z,15.60
2018-09-26T18:10:09.992Z,15.60
2018-09-26T18:12:37.725Z,15.50
2018-09-26T18:15:05.317Z,15.30
2018-09-26T18:17:32.920Z,15.20
2018-09-26T18:20:00.417Z,15.10
2018-09-26T18:22:27.948Z,15.10
2018-09-26T18:24:55.586Z,15.00
2018-09-26T18:27:23.143Z,14.90
2018-09-26T18:29:50.722Z,14.90
2018-09-26T18:32:18.293Z,14.80
2018-09-26T18:34:45.913Z,14.70
2018-09-26T18:37:13.749Z,14.50
2018-09-26T18:39:41.944Z,14.50
2018-09-26T18:42:09.672Z,14.50
2018-09-26T18:44:37.260Z,14.40
2018-09-26T18:47:04.833Z,14.40
2018-09-26T18:49:32.438Z,14.30
2018-09-26T18:52:00.029Z,14.30
2018-09-26T18:54:27.621Z,14.30
2018-09-26T18:56:55.212Z,14.20
2018-09-26T18:59:22.800Z,14.20
2018-09-26T19:01:50.415Z,14.20
2018-09-26T19:04:18.325Z,14.10
2018-09-26T19:06:45.903Z,14.00
2018-09-26T19:09:13.446Z,13.90
2018-09-26T19:11:40.992Z,13.90
2018-09-26T19:14:09.494Z,13.90
2018-09-26T19:16:37.057Z,13.90
2018-09-26T19:19:05.224Z,13.80
2018-09-26T19:21:32.829Z,13.70
2018-09-26T19:24:00.340Z,13.70
2018-09-26T19:26:27.926Z,13.60
2018-09-26T19:28:55.549Z,13.60
2018-09-26T19:31:23.108Z,13.60
2018-09-26T19:33:50.732Z,13.50
2018-09-26T19:36:18.314Z,13.50
2018-09-26T19:38:45.982Z,13.40
2018-09-26T19:41:13.517Z,13.30
2018-09-26T19:43:41.159Z,13.30
2018-09-26T19:46:08.781Z,13.30
2018-09-26T19:48:36.325Z,13.30
2018-09-26T19:51:03.919Z,13.30
2018-09-26T19:53:31.473Z,13.30
2018-09-26T19:55:59.086Z,13.20
2018-09-26T19:58:26.750Z,13.20
2018-09-26T20:00:54.269Z,13.20
2018-09-26T20:03:21.825Z,13.30
2018-09-26T20:05:49.550Z,13.20
2018-09-26T20:08:17.161Z,13.10
2018-09-26T20:10:45.519Z,13.10
2018-09-26T20:13:13.052Z,13.10
2018-09-26T20:15:40.621Z,13.10
2018-09-26T20:18:08.153Z,13.00
2018-09-26T20:20:35.723Z,12.90
2018-09-26T20:23:03.366Z,12.80
2018-09-26T20:25:30.865Z,12.80
2018-09-26T20:27:58.402Z,12.80
2018-09-26T20:30:25.969Z,12.80
2018-09-26T20:32:53.544Z,12.70
2018-09-26T20:35:21.191Z,12.60
2018-09-26T20:37:49.087Z,12.60
2018-09-26T20:40:16.715Z,12.50
2018-09-26T20:42:44.280Z,12.50
2018-09-26T20:45:11.893Z,12.40
2018-09-26T20:47:39.461Z,12.30
2018-09-26T20:50:07.105Z,12.30
2018-09-26T20:52:34.741Z,12.20
2018-09-26T20:55:02.633Z,12.20
2018-09-26T20:57:30.243Z,12.10
2018-09-26T20:59:57.834Z,12.10
2018-09-26T21:02:25.413Z,12.10
2018-09-26T21:04:53.004Z,12.00
2018-09-26T21:07:21.660Z,11.90
2018-09-26T21:09:49.578Z,11.90
2018-09-26T21:12:20.129Z,11.90
2018-09-26T21:14:47.801Z,11.90
2018-09-26T21:17:15.333Z,11.90
2018-09-26T21:19:42.949Z,11.80
2018-09-26T21:22:10.473Z,11.70
2018-09-26T21:24:38.033Z,11.60
2018-09-26T21:27:05.889Z,11.60
2018-09-26T21:29:33.453Z,11.60
2018-09-26T21:32:01.059Z,11.70
2018-09-26T21:34:28.697Z,11.70
2018-09-26T21:36:56.237Z,11.60
2018-09-26T21:39:23.819Z,11.60
2018-09-26T21:41:51.645Z,11.70
2018-09-26T21:44:19.261Z,11.70
2018-09-26T21:46:46.784Z,11.60
2018-09-26T21:49:14.342Z,11.60
2018-09-26T21:51:41.877Z,11.60
2018-09-26T21:54:09.451Z,11.60
2018-09-26T21:56:37.269Z,11.40
2018-09-26T21:59:05.029Z,11.40
2018-09-26T22:01:32.716Z,11.40
2018-09-26T22:04:00.318Z,11.40
2018-09-26T22:06:27.993Z,11.30
2018-09-26T22:08:55.560Z,11.30
2018-09-26T22:11:23.469Z,11.30
2018-09-26T22:13:51.096Z,11.20
2018-09-26T22:16:18.874Z,11.30
2018-09-26T22:18:46.436Z,11.10
2018-09-26T22:21:14.193Z,11.10
2018-09-26T22:23:41.783Z,11.10
2018-09-26T22:26:09.429Z,11.00
2018-09-26T22:28:37.023Z,11.10
2018-09-26T22:31:04.852Z,10.90
2018-09-26T22:33:32.404Z,10.80
2018-09-26T22:35:59.980Z,10.90
2018-09-26T22:38:27.533Z,10.80
2018-09-26T22:40:55.105Z,10.80
2018-09-26T22:43:22.656Z,10.80
2018-09-26T22:45:50.276Z,10.80
2018-09-26T22:48:17.879Z,10.80
2018-09-26T22:50:45.453Z,10.80
2018-09-26T22:53:13.005Z,10.80
2018-09-26T22:55:40.569Z,10.80
2018-09-26T22:58:08.141Z,10.70
2018-09-26T23:00:35.688Z,10.70
2018-09-26T23:03:03.917Z,10.70
2018-09-26T23:05:31.719Z,10.70
2018-09-26T23:08:03.120Z,10.70
2018-09-26T23:10:30.737Z,10.70
2018-09-26T23:12:58.276Z,10.60
2018-09-26T23:15:25.880Z,10.60
2018-09-26T23:17:53.417Z,10.50
2018-09-26T23:20:21.029Z,10.50
2018-09-26T23:22:48.583Z,10.40
2018-09-26T23:25:16.121Z,10.40
2018-09-26T23:27:43.733Z,10.30
2018-09-26T23:30:11.281Z,10.40
2018-09-26T23:32:38.847Z,10.30
2018-09-26T23:35:07.041Z,10.30
2018-09-26T23:37:34.626Z,10.30
2018-09-26T23:40:02.176Z,10.30
2018-09-26T23:42:29.749Z,10.30
2018-09-26T23:44:57.298Z,10.30
2018-09-26T23:47:24.868Z,10.30
2018-09-26T23:49:52.402Z,10.30
2018-09-26T23:52:19.973Z,10.20
2018-09-26T23:54:47.605Z,10.30
2018-09-26T23:57:15.184Z,10.20
2018-09-26T23:59:42.722Z,10.10
